Time;durP1;ratioP1;P1;durP2;ratioP2;P2;SDS_P1;SDS_P2;PMS_P1;PMS_P2;Temp;Humidity;BMP_temperature;BMP_pressure;BME280_temperature;BME280_humidity;BME280_pressure;Samples;Min_cycle;Max_cycle;Signal;HPM_P1;HPM_P2
2023/03/28 00:02:24;;;;;;;;;;;;;;;;;;5093160;28;2079;-41
2023/03/28 00:04:54;;;;;;;;;;;;;;;;;;5093097;28;1781;-41
2023/03/28 00:07:22;;;;;;;;;;;;;;;;;;5092875;28;2043;-48
2023/03/28 00:09:50;;;;;;;;;;;;;;;;;;5092957;28;1940;-41
2023/03/28 00:12:17;;;;;;;;;;;;;;;;;;5092911;28;2005;-47
2023/03/28 00:14:45;;;;;;;;;;;;;;;;;;5092946;28;1899;-40
2023/03/28 00:17:12;;;;;;;;;;;;;;;;;;5092693;28;1945;-42
2023/03/28 00:19:40;;;;;;;;;;;;;;;;;;5093004;28;2005;-43
2023/03/28 00:22:07;;;;;;;;;;;;;;;;;;5091741;28;2125;-49
2023/03/28 00:24:37;;;;;;;;;;;;;;;;;;5092457;28;1873;-44
2023/03/28 00:27:06;;;;;;;;;;;;;;;;;;5092678;28;2129;-54
2023/03/28 00:29:33;;;;;;;;;;;;;;;;;;5092494;28;2012;-41
2023/03/28 00:32:00;;;;;;;;;;;;;;;;;;5092489;28;1993;-41
2023/03/28 00:34:27;;;;;;;;;;;;;;;;;;5092269;28;1797;-41
2023/03/28 00:36:54;;;;;;;;;;;;;;;;;;5092379;28;1923;-42
2023/03/28 00:39:22;;;;;;;;;;;;;;;;;;5091056;28;1935;-41
2023/03/28 00:41:49;;;;;;;;;;;;;;;;;;5092556;28;1894;-41
2023/03/28 00:44:35;;;;;;;;;;;;;;;;;;5090813;28;2090;-41
2023/03/28 00:47:02;;;;;;;;;;;;;;;;;;5090553;28;1910;-41
2023/03/28 00:49:30;;;;;;;;;;;;;;;;;;5092083;28;1913;-41
2023/03/28 00:52:00;;;;;;;;;;;;;;;;;;5092122;28;1953;-44
2023/03/28 00:54:29;;;;;;;;;;;;;;;;;;5091997;28;2004;-45
2023/03/28 00:56:58;;;;;;;;;;;;;;;;;;5106930;28;2017;-55
2023/03/28 00:59:28;;;;;;;;;;;;;;;;;;5112504;28;1994;-43
2023/03/28 01:01:55;;;;;;;;;;;;;;;;;;5112159;28;2157;-43
2023/03/28 01:04:23;;;;;;;;;;;;;;;;;;5112133;28;1879;-42
2023/03/28 01:06:53;;;;;;;;;;;;;;;;;;5111092;28;2083;-46
2023/03/28 01:09:25;;;;;;;;;;;;;;;;;;5110999;28;1956;-42
2023/03/28 01:11:55;;;;;;;;;;;;;;;;;;5110886;28;2079;-42
2023/03/28 01:14:23;;;;;;;;;;;;;;;;;;5110638;28;1873;-43
2023/03/28 01:16:55;;;;;;;;;;;;;;;;;;5110805;28;2104;-40
2023/03/28 01:19:35;;;;;;;;;;;;;;;;;;5099918;28;1895;-56
2023/03/28 01:22:21;;;;;;;;;;;;;;;;;;5090250;28;2100;-56
2023/03/28 01:25:21;;;;;;;;;;;;;;;;;;5091545;28;1926;-42
2023/03/28 01:28:00;;;;;;;;;;;;;;;;;;5068807;28;2018;-41
2023/03/28 01:31:02;;;;;;;;;;;;;;;;;;5090198;28;2191;-58
2023/03/28 01:33:51;;;;;;;;;;;;;;;;;;5091346;28;2001;-47
2023/03/28 01:36:37;;;;;;;;;;;;;;;;;;5091434;28;2053;-41
2023/03/28 01:39:08;;;;;;;;;;;;;;;;;;5091350;28;2017;-40
2023/03/28 01:41:40;;;;;;;;;;;;;;;;;;5090034;28;1839;-42
2023/03/28 01:44:23;;;;;;;;;;;;;;;;;;5091227;28;1627;-41
2023/03/28 01:47:10;;;;;;;;;;;;;;;;;;5089676;28;2203;-41
2023/03/28 01:49:48;;;;;;;;;;;;;;;;;;5096721;28;2199;-47
2023/03/28 01:52:19;;;;;;;;;;;;;;;;;;5091559;28;2037;-48
2023/03/28 01:54:51;;;;;;;;;;;;;;;;;;5091432;28;1908;-44
2023/03/28 01:57:32;;;;;;;;;;;;;;;;;;5107885;28;1981;-41
2023/03/28 02:00:14;;;;;;;;;;;;;;;;;;5109961;28;2084;-47
2023/03/28 02:03:00;;;;;;;;;;;;;;;;;;5111657;28;2001;-58
2023/03/28 02:05:35;;;;;;;;;;;;;;;;;;5110291;28;1808;-41
2023/03/28 02:08:07;;;;;;;;;;;;;;;;;;5110155;28;2046;-55
2023/03/28 02:10:50;;;;;;;;;;;;;;;;;;5109732;28;2093;-40
2023/03/28 02:13:45;;;;;;;;;;;;;;;;;;5111258;28;1883;-41
2023/03/28 02:16:40;;;;;;;;;;;;;;;;;;5099522;28;2005;-41
2023/03/28 02:19:37;;;;;;;;;;;;;;;;;;5102867;28;2082;-41
2023/03/28 02:22:11;;;;;;;;;;;;;;;;;;5111299;28;1716;-41
2023/03/28 02:24:38;;;;;;;;;;;;;;;;;;5111375;28;2130;-40
2023/03/28 02:27:24;;;;;;;;;;;;;;;;;;5110118;28;1972;-46
2023/03/28 02:30:10;;;;;;;;;;;;;;;;;;5110127;28;1781;-46
2023/03/28 02:32:48;;;;;;;;;;;;;;;;;;5111158;28;2020;-40
2023/03/28 02:35:21;;;;;;;;;;;;;;;;;;5110162;28;1967;-41
2023/03/28 02:38:03;;;;;;;;;;;;;;;;;;5109845;28;1980;-40
2023/03/28 02:40:52;;;;;;;;;;;;;;;;;;5109785;28;1932;-43
2023/03/28 02:43:36;;;;;;;;;;;;;;;;;;5110035;28;2206;-41
2023/03/28 02:46:03;;;;;;;;;;;;;;;;;;5113021;28;2063;-40
2023/03/28 02:48:43;;;;;;;;;;;;;;;;;;5113725;28;1853;-44
2023/03/28 02:51:13;;;;;;;;;;;;;;;;;;5113745;28;1976;-41
2023/03/28 02:53:53;;;;;;;;;;;;;;;;;;5113584;28;1733;-45
2023/03/28 02:56:23;;;;;;;;;;;;;;;;;;5103388;28;2087;-41
2023/03/28 02:59:11;;;;;;;;;;;;;;;;;;5092891;28;2087;-40
2023/03/28 03:01:40;;;;;;;;;;;;;;;;;;5100337;28;2008;-40
2023/03/28 03:04:07;;;;;;;;;;;;;;;;;;5113360;28;1878;-42
2023/03/28 03:06:35;;;;;;;;;;;;;;;;;;5114320;28;2005;-51
2023/03/28 03:09:03;;;;;;;;;;;;;;;;;;5112790;28;2109;-53
2023/03/28 03:11:31;;;;;;;;;;;;;;;;;;5114074;28;2064;-47
2023/03/28 03:13:59;;;;;;;;;;;;;;;;;;5112912;28;2087;-49
2023/03/28 03:16:28;;;;;;;;;;;;;;;;;;5112902;28;1907;-50
2023/03/28 03:18:57;;;;;;;;;;;;;;;;;;5114037;28;1887;-48
2023/03/28 03:21:25;;;;;;;;;;;;;;;;;;5113671;28;2118;-40
2023/03/28 03:23:52;;;;;;;;;;;;;;;;;;5100861;28;1947;-43
2023/03/28 03:26:20;;;;;;;;;;;;;;;;;;5104983;28;1999;-40
2023/03/28 03:28:59;;;;;;;;;;;;;;;;;;5092199;28;1464;-42
2023/03/28 03:31:27;;;;;;;;;;;;;;;;;;5101390;28;2010;-41
2023/03/28 03:34:12;;;;;;;;;;;;;;;;;;5112722;28;1913;-41
2023/03/28 03:36:45;;;;;;;;;;;;;;;;;;5112294;28;2314;-41
2023/03/28 03:39:12;;;;;;;;;;;;;;;;;;5112319;28;1808;-40
2023/03/28 03:41:40;;;;;;;;;;;;;;;;;;5113737;28;2073;-42
2023/03/28 03:44:08;;;;;;;;;;;;;;;;;;5103825;28;2139;-44
2023/03/28 03:46:35;;;;;;;;;;;;;;;;;;5104028;28;1357;-40
2023/03/28 03:49:02;;;;;;;;;;;;;;;;;;5094228;28;1990;-43
2023/03/28 03:51:32;;;;;;;;;;;;;;;;;;5095424;28;2088;-41
2023/03/28 03:54:00;;;;;;;;;;;;;;;;;;5095443;28;1970;-42
2023/03/28 03:56:37;;;;;;;;;;;;;;;;;;5107187;27;2047;-41
2023/03/28 03:59:05;;;;;;;;;;;;;;;;;;5115611;27;1933;-41
2023/03/28 04:01:38;;;;;;;;;;;;;;;;;;5115773;27;2161;-42
2023/03/28 04:04:28;;;;;;;;;;;;;;;;;;5132413;27;1888;-44
2023/03/28 04:07:19;;;;;;;;;;;;;;;;;;5122723;27;1891;-40
2023/03/28 04:09:49;;;;;;;;;;;;;;;;;;5105190;27;2227;-41
2023/03/28 04:12:17;;;;;;;;;;;;;;;;;;5114001;27;1717;-46
2023/03/28 04:14:47;;;;;;;;;;;;;;;;;;5113860;27;1983;-41
2023/03/28 04:17:33;;;;;;;;;;;;;;;;;;5133374;27;1986;-43
2023/03/28 04:20:12;;;;;;;;;;;;;;;;;;5115232;27;2255;-41
2023/03/28 04:23:04;;;;;;;;;;;;;;;;;;5115344;27;2256;-40
2023/03/28 04:25:33;;;;;;;;;;;;;;;;;;5115222;27;1908;-42
2023/03/28 04:28:09;;;;;;;;;;;;;;;;;;5114952;27;2045;-41
2023/03/28 04:30:45;;;;;;;;;;;;;;;;;;5115133;27;1821;-40
2023/03/28 04:33:32;;;;;;;;;;;;;;;;;;5126328;27;2087;-40
2023/03/28 04:36:02;;;;;;;;;;;;;;;;;;5108376;27;2159;-40
2023/03/28 04:38:35;;;;;;;;;;;;;;;;;;5110782;28;2075;-41
2023/03/28 04:41:34;;;;;;;;;;;;;;;;;;5104607;28;1884;-41
2023/03/28 04:44:01;;;;;;;;;;;;;;;;;;5112844;28;1969;-41
2023/03/28 04:46:35;;;;;;;;;;;;;;;;;;5110964;28;2176;-46
2023/03/28 04:49:09;;;;;;;;;;;;;;;;;;5094064;28;2188;-41
2023/03/28 04:51:37;;;;;;;;;;;;;;;;;;5094248;28;1951;-41
2023/03/28 04:54:05;;;;;;;;;;;;;;;;;;5111096;28;1855;-41
2023/03/28 04:56:53;;;;;;;;;;;;;;;;;;5094475;28;1917;-41
2023/03/28 04:59:29;;;;;;;;;;;;;;;;;;5094170;28;1833;-40
2023/03/28 05:01:56;;;;;;;;;;;;;;;;;;5112562;28;2120;-41
2023/03/28 05:04:42;;;;;;;;;;;;;;;;;;5111732;28;2092;-41
2023/03/28 05:07:09;;;;;;;;;;;;;;;;;;5111895;28;1907;-47
2023/03/28 05:09:37;;;;;;;;;;;;;;;;;;5111993;28;2268;-41
2023/03/28 05:12:04;;;;;;;;;;;;;;;;;;5110921;28;2020;-52
2023/03/28 05:14:48;;;;;;;;;;;;;;;;;;5112073;28;1602;-44
2023/03/28 05:17:16;;;;;;;;;;;;;;;;;;5113676;27;2311;-41
2023/03/28 05:19:54;;;;;;;;;;;;;;;;;;5112425;27;9921;-41
2023/03/28 05:22:23;;;;;;;;;;;;;;;;;;5131081;27;2413;-41
2023/03/28 05:24:52;;;;;;;;;;;;;;;;;;5114112;27;2060;-42
2023/03/28 05:27:20;;;;;;;;;;;;;;;;;;5132394;27;2070;-45
2023/03/28 05:29:47;;;;;;;;;;;;;;;;;;5113956;27;2093;-41
2023/03/28 05:32:16;;;;;;;;;;;;;;;;;;5113965;27;1833;-45
2023/03/28 05:34:44;;;;;;;;;;;;;;;;;;5113569;27;2127;-40
2023/03/28 05:37:12;;;;;;;;;;;;;;;;;;5113931;27;1903;-41
2023/03/28 05:39:58;;;;;;;;;;;;;;;;;;5114057;28;2099;-41
2023/03/28 05:42:25;;;;;;;;;;;;;;;;;;5113808;27;2319;-41
2023/03/28 05:44:52;;;;;;;;;;;;;;;;;;5132098;27;1815;-42
2023/03/28 05:47:44;;;;;;;;;;;;;;;;;;5113891;28;2165;-40
2023/03/28 05:50:12;;;;;;;;;;;;;;;;;;5113866;28;2171;-41
2023/03/28 05:52:39;;;;;;;;;;;;;;;;;;5132066;28;1574;-41
2023/03/28 05:55:07;;;;;;;;;;;;;;;;;;5132171;28;1978;-41
2023/03/28 05:57:34;;;;;;;;;;;;;;;;;;5131912;28;1984;-41
2023/03/28 06:00:12;;;;;;;;;;;;;;;;;;5113719;28;2003;-43
2023/03/28 06:02:49;;;;;;;;;;;;;;;;;;5113664;28;1744;-41
2023/03/28 06:05:20;;;;;;;;;;;;;;;;;;5113578;28;2037;-40
2023/03/28 06:07:47;;;;;;;;;;;;;;;;;;5132045;28;1888;-41
2023/03/28 06:10:16;;;;;;;;;;;;;;;;;;5113342;28;2085;-56
2023/03/28 06:12:55;;;;;;;;;;;;;;;;;;5113391;28;1943;-42
2023/03/28 06:15:22;;;;;;;;;;;;;;;;;;5113585;28;1984;-41
2023/03/28 06:17:50;;;;;;;;;;;;;;;;;;5113470;28;2213;-40
2023/03/28 06:20:17;;;;;;;;;;;;;;;;;;5115896;27;2171;-42
2023/03/28 06:22:44;;;;;;;;;;;;;;;;;;5117616;27;2029;-41
2023/03/28 06:25:12;;;;;;;;;;;;;;;;;;5135812;27;1916;-41
2023/03/28 06:27:39;;;;;;;;;;;;;;;;;;5117444;27;2005;-40
2023/03/28 06:30:07;;;;;;;;;;;;;;;;;;5135859;27;2055;-41
2023/03/28 06:32:44;;;;;;;;;;;;;;;;;;5117227;27;2135;-41
2023/03/28 06:35:13;;;;;;;;;;;;;;;;;;5116888;27;1848;-41
2023/03/28 06:37:40;;;;;;;;;;;;;;;;;;5135372;27;1978;-40
2023/03/28 06:40:09;;;;;;;;;;;;;;;;;;5135435;27;2209;-41
2023/03/28 06:42:37;;;;;;;;;;;;;;;;;;5117180;27;1995;-41
2023/03/28 06:45:33;;;;;;;;;;;;;;;;;;5121665;27;2030;-41
2023/03/28 06:48:02;;;;;;;;;;;;;;;;;;5117253;27;1922;-41
2023/03/28 06:50:50;;;;;;;;;;;;;;;;;;5135700;27;1878;-40
2023/03/28 06:53:19;;;;;;;;;;;;;;;;;;5116918;27;2018;-41
2023/03/28 06:55:48;;;;;;;;;;;;;;;;;;5129862;27;1995;-41
2023/03/28 06:58:16;;;;;;;;;;;;;;;;;;5114629;28;1995;-40
2023/03/28 07:00:53;;;;;;;;;;;;;;;;;;5096244;28;2126;-41
2023/03/28 07:03:53;;;;;;;;;;;;;;;;;;5069395;28;1974;-41
2023/03/28 07:06:24;;;;;;;;;;;;;;;;;;5114192;28;2049;-42
2023/03/28 07:08:51;;;;;;;;;;;;;;;;;;5114467;28;2055;-40
2023/03/28 07:11:25;;;;;;;;;;;;;;;;;;5096249;28;2144;-41
2023/03/28 07:13:52;;;;;;;;;;;;;;;;;;5114197;28;1969;-40
2023/03/28 07:16:20;;;;;;;;;;;;;;;;;;5096038;28;1934;-40
2023/03/28 07:18:47;;;;;;;;;;;;;;;;;;5095852;28;1909;-40
2023/03/28 07:21:21;;;;;;;;;;;;;;;;;;5095827;28;2041;-41
2023/03/28 07:23:50;;;;;;;;;;;;;;;;;;5114476;28;2162;-50
2023/03/28 07:26:21;;;;;;;;;;;;;;;;;;5095751;28;2074;-41
2023/03/28 07:28:48;;;;;;;;;;;;;;;;;;5114599;28;1902;-41
2023/03/28 07:31:15;;;;;;;;;;;;;;;;;;5095418;28;2279;-41
2023/03/28 07:33:42;;;;;;;;;;;;;;;;;;5114175;28;1873;-40
2023/03/28 07:36:18;;;;;;;;;;;;;;;;;;5095643;28;1828;-41
2023/03/28 07:38:50;;;;;;;;;;;;;;;;;;5095412;28;1965;-41
2023/03/28 07:41:21;;;;;;;;;;;;;;;;;;5095610;28;2303;-41
2023/03/28 07:43:49;;;;;;;;;;;;;;;;;;5095276;28;2037;-41
2023/03/28 07:46:16;;;;;;;;;;;;;;;;;;5113542;28;1913;-41
2023/03/28 07:48:45;;;;;;;;;;;;;;;;;;5113671;28;2170;-47
2023/03/28 07:51:15;;;;;;;;;;;;;;;;;;5095273;28;2005;-41
2023/03/28 07:53:42;;;;;;;;;;;;;;;;;;5113484;28;2121;-41
2023/03/28 07:56:10;;;;;;;;;;;;;;;;;;5122187;27;2072;-43
2023/03/28 07:59:12;;;;;;;;;;;;;;;;;;5099408;27;1976;-41
2023/03/28 08:01:43;;;;;;;;;;;;;;;;;;5115683;27;1764;-40
2023/03/28 08:04:11;;;;;;;;;;;;;;;;;;5134214;27;1992;-41
2023/03/28 08:06:56;;;;;;;;;;;;;;;;;;5115440;27;1951;-43
2023/03/28 08:09:24;;;;;;;;;;;;;;;;;;5133845;27;2045;-43
2023/03/28 08:12:17;;;;;;;;;;;;;;;;;;5115096;27;1918;-41
2023/03/28 08:14:46;;;;;;;;;;;;;;;;;;5134275;27;2056;-44
2023/03/28 08:17:19;;;;;;;;;;;;;;;;;;5115086;27;1942;-40
2023/03/28 08:19:47;;;;;;;;;;;;;;;;;;5115013;27;2073;-46
2023/03/28 08:22:26;;;;;;;;;;;;;;;;;;5133621;27;1950;-40
2023/03/28 08:25:22;;;;;;;;;;;;;;;;;;5114310;27;1917;-41
2023/03/28 08:27:52;;;;;;;;;;;;;;;;;;5115032;27;1979;-41
2023/03/28 08:30:19;;;;;;;;;;;;;;;;;;5114643;27;2037;-52
2023/03/28 08:32:52;;;;;;;;;;;;;;;;;;5113887;27;2029;-42
2023/03/28 08:35:19;;;;;;;;;;;;;;;;;;5133371;27;1950;-42
2023/03/28 08:37:51;;;;;;;;;;;;;;;;;;5114399;27;1987;-41
2023/03/28 08:40:19;;;;;;;;;;;;;;;;;;5123608;27;1961;-55
2023/03/28 08:42:54;;;;;;;;;;;;;;;;;;5093504;28;2096;-42
2023/03/28 08:45:36;;;;;;;;;;;;;;;;;;5094250;28;2144;-39
2023/03/28 08:48:10;;;;;;;;;;;;;;;;;;5094331;28;2131;-40
2023/03/28 08:50:43;;;;;;;;;;;;;;;;;;5112269;28;1925;-41
2023/03/28 08:53:18;;;;;;;;;;;;;;;;;;5094259;28;2109;-40
2023/03/28 08:55:47;;;;;;;;;;;;;;;;;;5112303;27;1985;-42
2023/03/28 08:58:22;;;;;;;;;;;;;;;;;;5112434;28;1902;-50
2023/03/28 09:00:50;;;;;;;;;;;;;;;;;;5112307;28;2053;-42
2023/03/28 09:03:20;;;;;;;;;;;;;;;;;;5112147;28;2150;-41
2023/03/28 09:06:11;;;;;;;;;;;;;;;;;;5096313;27;1964;-54
2023/03/28 09:08:48;;;;;;;;;;;;;;;;;;5114192;27;1818;-43
2023/03/28 09:11:27;;;;;;;;;;;;;;;;;;5113855;27;2017;-48
2023/03/28 09:14:07;;;;;;;;;;;;;;;;;;5132602;27;1862;-47
2023/03/28 09:16:42;;;;;;;;;;;;;;;;;;5132522;27;2073;-41
2023/03/28 09:19:27;;;;;;;;;;;;;;;;;;5114065;27;1909;-41
2023/03/28 09:22:41;;;;;;;;;;;;;;;;;;5132396;27;1750;-41
2023/03/28 09:25:20;;;;;;;;;;;;;;;;;;5113898;27;1892;-41
2023/03/28 09:28:05;;;;;;;;;;;;;;;;;;5097143;27;1999;-42
2023/03/28 09:30:33;;;;;;;;;;;;;;;;;;5113992;27;2014;-40
2023/03/28 09:33:03;;;;;;;;;;;;;;;;;;5113849;27;1860;-40
2023/03/28 09:35:31;;;;;;;;;;;;;;;;;;5113842;27;1913;-40
2023/03/28 09:38:01;;;;;;;;;;;;;;;;;;5113788;27;2140;-41
2023/03/28 09:40:30;;;;;;;;;;;;;;;;;;5113597;27;1963;-43
2023/03/28 09:43:35;;;;;;;;;;;;;;;;;;5128955;27;2135;-41
2023/03/28 09:46:29;;;;;;;;;;;;;;;;;;5099751;27;1973;-41
2023/03/28 09:49:15;;;;;;;;;;;;;;;;;;5113663;28;2151;-40
2023/03/28 09:51:50;;;;;;;;;;;;;;;;;;5113537;28;2045;-41
2023/03/28 09:54:28;;;;;;;;;;;;;;;;;;5135902;27;1949;-41
2023/03/28 09:56:57;;;;;;;;;;;;;;;;;;5144328;27;1895;-41
2023/03/28 09:59:45;;;;;;;;;;;;;;;;;;5117514;27;2273;-41
2023/03/28 10:02:27;;;;;;;;;;;;;;;;;;5120742;27;1970;-41
2023/03/28 10:04:59;;;;;;;;;;;;;;;;;;5120234;27;2111;-54
2023/03/28 10:07:43;;;;;;;;;;;;;;;;;;5120212;27;2215;-44
2023/03/28 10:10:42;;;;;;;;;;;;;;;;;;5103882;27;1773;-45
2023/03/28 10:13:16;;;;;;;;;;;;;;;;;;5120342;27;2007;-43
2023/03/28 10:15:48;;;;;;;;;;;;;;;;;;5138610;27;2038;-43
2023/03/28 10:18:51;;;;;;;;;;;;;;;;;;5055022;28;1996;-40
2023/03/28 10:21:34;;;;;;;;;;;;;;;;;;5112065;27;1926;-41
2023/03/28 10:24:11;;;;;;;;;;;;;;;;;;5138201;27;2049;-45
2023/03/28 10:26:41;;;;;;;;;;;;;;;;;;5120002;27;1815;-43
2023/03/28 10:29:10;;;;;;;;;;;;;;;;;;5120194;27;1904;-40
2023/03/28 10:31:38;;;;;;;;;;;;;;;;;;5120145;27;1844;-42
2023/03/28 10:34:35;;;;;;;;;;;;;;;;;;5124572;27;2140;-41
2023/03/28 10:37:44;;;;;;;;;;;;;;;;;;5138455;27;1939;-43
2023/03/28 10:40:28;;;;;;;;;;;;;;;;;;5054223;28;2141;-41
2023/03/28 10:43:37;;;;;;;;;;;;;;;;;;4976230;28;2059;-45
2023/03/28 10:46:14;;;;;;;;;;;;;;;;;;5012583;28;1535;-41
2023/03/28 10:49:14;;;;;;;;;;;;;;;;;;5076481;28;2067;-40
2023/03/28 10:52:29;;;;;;;;;;;;;;;;;;5099420;28;1967;-40
2023/03/28 10:55:12;;;;;;;;;;;;;;;;;;5084463;28;1847;-42
2023/03/28 10:58:02;;;;;;;;;;;;;;;;;;5117752;28;1940;-40
2023/03/28 11:00:41;;;;;;;;;;;;;;;;;;5099306;28;2065;-46
2023/03/28 11:03:31;;;;;;;;;;;;;;;;;;5099460;28;2083;-39
2023/03/28 11:06:11;;;;;;;;;;;;;;;;;;5096163;28;1919;-51
2023/03/28 11:08:44;;;;;;;;;;;;;;;;;;5096188;28;1873;-41
2023/03/28 11:11:35;;;;;;;;;;;;;;;;;;5096003;28;1891;-40
2023/03/28 11:14:11;;;;;;;;;;;;;;;;;;5105769;27;2050;-42
2023/03/28 11:16:59;;;;;;;;;;;;;;;;;;5124954;27;2082;-41
2023/03/28 11:20:05;;;;;;;;;;;;;;;;;;5096856;27;1996;-41
2023/03/28 11:22:43;;;;;;;;;;;;;;;;;;5103788;28;2110;-41
2023/03/28 11:25:37;;;;;;;;;;;;;;;;;;5123245;27;2161;-43
2023/03/28 11:28:45;;;;;;;;;;;;;;;;;;5091492;28;1952;-42
2023/03/28 11:31:21;;;;;;;;;;;;;;;;;;5092934;28;2039;-41
2023/03/28 11:34:01;;;;;;;;;;;;;;;;;;5095708;28;1972;-40
2023/03/28 11:36:40;;;;;;;;;;;;;;;;;;5095724;28;2127;-41
2023/03/28 11:39:18;;;;;;;;;;;;;;;;;;5095416;28;2058;-41
2023/03/28 11:41:47;;;;;;;;;;;;;;;;;;5095584;28;2111;-49
2023/03/28 11:44:42;;;;;;;;;;;;;;;;;;5095490;28;1939;-47
2023/03/28 11:47:16;;;;;;;;;;;;;;;;;;5095172;28;1912;-48
2023/03/28 11:49:57;;;;;;;;;;;;;;;;;;5095307;28;2030;-49
2023/03/28 11:52:53;;;;;;;;;;;;;;;;;;5112275;28;1847;-45
2023/03/28 11:55:30;;;;;;;;;;;;;;;;;;5095281;28;1962;-49
2023/03/28 11:58:04;;;;;;;;;;;;;;;;;;5095025;28;2061;-50
2023/03/28 12:00:35;;;;;;;;;;;;;;;;;;5095081;28;2186;-50
2023/03/28 12:03:28;;;;;;;;;;;;;;;;;;5095131;28;2053;-41
2023/03/28 12:05:56;;;;;;;;;;;;;;;;;;5113375;28;1972;-42
2023/03/28 12:08:50;;;;;;;;;;;;;;;;;;5094731;28;1949;-45
2023/03/28 12:11:20;;;;;;;;;;;;;;;;;;5094880;28;2262;-51
2023/03/28 12:14:49;;;;;;;;;;;;;;;;;;5109468;27;2051;-41
2023/03/28 12:17:55;;;;;;;;;;;;;;;;;;5030023;28;1969;-43
2023/03/28 12:20:28;;;;;;;;;;;;;;;;;;5087783;28;1976;-47
2023/03/28 12:23:00;;;;;;;;;;;;;;;;;;5113268;28;1971;-41
2023/03/28 12:25:52;;;;;;;;;;;;;;;;;;5113078;28;1994;-40
2023/03/28 12:28:25;;;;;;;;;;;;;;;;;;5094634;28;2197;-40
2023/03/28 12:30:53;;;;;;;;;;;;;;;;;;5094545;28;1803;-41
2023/03/28 12:33:24;;;;;;;;;;;;;;;;;;5094524;28;1953;-41
2023/03/28 12:36:03;;;;;;;;;;;;;;;;;;5094512;28;2048;-45
2023/03/28 12:38:49;;;;;;;;;;;;;;;;;;5094360;28;1980;-48
2023/03/28 12:41:28;;;;;;;;;;;;;;;;;;5094697;28;1578;-51
2023/03/28 12:43:58;;;;;;;;;;;;;;;;;;5094423;28;2268;-40
2023/03/28 12:46:35;;;;;;;;;;;;;;;;;;5094068;28;1929;-40
2023/03/28 12:49:05;;;;;;;;;;;;;;;;;;5113012;28;2113;-41
2023/03/28 12:51:35;;;;;;;;;;;;;;;;;;5105200;27;2226;-43
2023/03/28 12:54:08;;;;;;;;;;;;;;;;;;5113669;27;1950;-42
2023/03/28 12:56:36;;;;;;;;;;;;;;;;;;5132043;27;2061;-46
2023/03/28 12:59:34;;;;;;;;;;;;;;;;;;5133793;27;1986;-40
2023/03/28 13:02:08;;;;;;;;;;;;;;;;;;5134899;27;2009;-40
2023/03/28 13:05:05;;;;;;;;;;;;;;;;;;5153225;27;1835;-41
2023/03/28 13:07:33;;;;;;;;;;;;;;;;;;5134755;27;2009;-43
2023/03/28 13:10:23;;;;;;;;;;;;;;;;;;5153197;27;1895;-40
2023/03/28 13:12:54;;;;;;;;;;;;;;;;;;5124292;27;2006;-41
2023/03/28 13:15:30;;;;;;;;;;;;;;;;;;5152984;27;2152;-40
2023/03/28 13:18:20;;;;;;;;;;;;;;;;;;5134736;27;1925;-40
2023/03/28 13:20:50;;;;;;;;;;;;;;;;;;5153037;27;1923;-41
2023/03/28 13:23:18;;;;;;;;;;;;;;;;;;5153199;27;1780;-47
2023/03/28 13:25:53;;;;;;;;;;;;;;;;;;5152970;27;2101;-41
2023/03/28 13:28:28;;;;;;;;;;;;;;;;;;5152673;27;2001;-40
2023/03/28 13:31:13;;;;;;;;;;;;;;;;;;5152975;27;1976;-41
2023/03/28 13:34:00;;;;;;;;;;;;;;;;;;5153011;27;1943;-41
2023/03/28 13:36:27;;;;;;;;;;;;;;;;;;5153351;27;1953;-39
2023/03/28 13:39:07;;;;;;;;;;;;;;;;;;5152794;27;1980;-42
2023/03/28 13:41:34;;;;;;;;;;;;;;;;;;5152966;27;1758;-39
2023/03/28 13:44:09;;;;;;;;;;;;;;;;;;5152967;27;2047;-40
2023/03/28 13:46:42;;;;;;;;;;;;;;;;;;5152547;27;1970;-43
2023/03/28 13:49:09;;;;;;;;;;;;;;;;;;5150909;27;2059;-40
2023/03/28 13:51:47;;;;;;;;;;;;;;;;;;5132334;27;1913;-41
2023/03/28 13:54:15;;;;;;;;;;;;;;;;;;5150559;27;1945;-41
2023/03/28 13:56:43;;;;;;;;;;;;;;;;;;5137336;27;1963;-41
2023/03/28 13:59:13;;;;;;;;;;;;;;;;;;5130212;28;1906;-43
2023/03/28 14:01:47;;;;;;;;;;;;;;;;;;5132200;28;1999;-41
2023/03/28 14:04:19;;;;;;;;;;;;;;;;;;5127987;27;1844;-54
2023/03/28 14:06:47;;;;;;;;;;;;;;;;;;5093211;28;2031;-41
2023/03/28 14:09:18;;;;;;;;;;;;;;;;;;5111211;28;2013;-42
2023/03/28 14:11:45;;;;;;;;;;;;;;;;;;5111417;28;2018;-59
2023/03/28 14:14:30;;;;;;;;;;;;;;;;;;5110659;27;2052;-53
2023/03/28 14:17:00;;;;;;;;;;;;;;;;;;5111359;28;2046;-58
2023/03/28 14:19:38;;;;;;;;;;;;;;;;;;5120570;27;1980;-40
2023/03/28 14:22:13;;;;;;;;;;;;;;;;;;5152360;27;2039;-40
2023/03/28 14:24:41;;;;;;;;;;;;;;;;;;5152364;27;1814;-41
2023/03/28 14:27:11;;;;;;;;;;;;;;;;;;5152208;27;1938;-40
2023/03/28 14:29:56;;;;;;;;;;;;;;;;;;5152322;27;1971;-45
2023/03/28 14:32:25;;;;;;;;;;;;;;;;;;5137215;27;2013;-40
2023/03/28 14:34:54;;;;;;;;;;;;;;;;;;5131642;28;1917;-44
2023/03/28 14:37:22;;;;;;;;;;;;;;;;;;5131578;27;2062;-52
2023/03/28 14:39:50;;;;;;;;;;;;;;;;;;5131598;27;1981;-40
2023/03/28 14:42:18;;;;;;;;;;;;;;;;;;5141657;27;1952;-44
2023/03/28 14:44:48;;;;;;;;;;;;;;;;;;5156117;27;1848;-41
2023/03/28 14:47:20;;;;;;;;;;;;;;;;;;5155912;27;2210;-41
2023/03/28 14:49:47;;;;;;;;;;;;;;;;;;5155917;27;1981;-54
2023/03/28 14:52:24;;;;;;;;;;;;;;;;;;5155838;27;2011;-40
2023/03/28 14:54:51;;;;;;;;;;;;;;;;;;5156089;27;1868;-41
2023/03/28 14:57:19;;;;;;;;;;;;;;;;;;5115380;27;1947;-43
2023/03/28 14:59:47;;;;;;;;;;;;;;;;;;5114435;28;1993;-42
2023/03/28 15:02:21;;;;;;;;;;;;;;;;;;5114475;28;1621;-45
2023/03/28 15:04:48;;;;;;;;;;;;;;;;;;5113203;28;2249;-41
2023/03/28 15:07:25;;;;;;;;;;;;;;;;;;5114445;28;1948;-42
2023/03/28 15:10:08;;;;;;;;;;;;;;;;;;5114203;28;1820;-41
2023/03/28 15:12:46;;;;;;;;;;;;;;;;;;5114444;28;1953;-41
2023/03/28 15:15:15;;;;;;;;;;;;;;;;;;5114123;28;2080;-41
2023/03/28 15:17:43;;;;;;;;;;;;;;;;;;5114229;28;1842;-41
2023/03/28 15:20:14;;;;;;;;;;;;;;;;;;5113859;28;2034;-41
2023/03/28 15:22:41;;;;;;;;;;;;;;;;;;5114296;28;2183;-42
2023/03/28 15:25:11;;;;;;;;;;;;;;;;;;5114475;28;2125;-49
2023/03/28 15:27:39;;;;;;;;;;;;;;;;;;5114187;28;1950;-40
2023/03/28 15:30:11;;;;;;;;;;;;;;;;;;5148134;27;2044;-41
2023/03/28 15:32:39;;;;;;;;;;;;;;;;;;5155248;27;2068;-49
2023/03/28 15:35:27;;;;;;;;;;;;;;;;;;5155203;27;2042;-50
2023/03/28 15:38:20;;;;;;;;;;;;;;;;;;5154906;27;1941;-44
2023/03/28 15:40:51;;;;;;;;;;;;;;;;;;5153577;27;1984;-49
2023/03/28 15:43:24;;;;;;;;;;;;;;;;;;5154898;27;1740;-50
2023/03/28 15:45:56;;;;;;;;;;;;;;;;;;5154779;27;2133;-42
2023/03/28 15:48:24;;;;;;;;;;;;;;;;;;5154787;27;2049;-46
2023/03/28 15:50:53;;;;;;;;;;;;;;;;;;5154423;27;1907;-41
2023/03/28 15:53:24;;;;;;;;;;;;;;;;;;5154757;27;1912;-41
2023/03/28 15:55:51;;;;;;;;;;;;;;;;;;5148587;27;1913;-48
2023/03/28 15:58:19;;;;;;;;;;;;;;;;;;5133927;27;2040;-41
2023/03/28 16:00:48;;;;;;;;;;;;;;;;;;5133646;27;1967;-42
2023/03/28 16:03:32;;;;;;;;;;;;;;;;;;5133902;27;2153;-41
2023/03/28 16:06:02;;;;;;;;;;;;;;;;;;5133599;27;2038;-41
2023/03/28 16:08:39;;;;;;;;;;;;;;;;;;5133768;27;1987;-41
2023/03/28 16:11:12;;;;;;;;;;;;;;;;;;5133594;27;2039;-41
2023/03/28 16:14:01;;;;;;;;;;;;;;;;;;5133476;27;1844;-47
2023/03/28 16:16:53;;;;;;;;;;;;;;;;;;5091373;27;1373;-41
2023/03/28 16:19:31;;;;;;;;;;;;;;;;;;5115103;27;1992;-50
2023/03/28 16:22:01;;;;;;;;;;;;;;;;;;5114995;27;2129;-41
2023/03/28 16:24:28;;;;;;;;;;;;;;;;;;5133325;27;2097;-44
2023/03/28 16:26:56;;;;;;;;;;;;;;;;;;5133365;27;1979;-41
2023/03/28 16:29:23;;;;;;;;;;;;;;;;;;5133251;27;1761;-40
2023/03/28 16:31:50;;;;;;;;;;;;;;;;;;5133175;27;2011;-41
2023/03/28 16:34:17;;;;;;;;;;;;;;;;;;5133219;27;1977;-41
2023/03/28 16:36:44;;;;;;;;;;;;;;;;;;5133022;27;1823;-41
2023/03/28 16:39:11;;;;;;;;;;;;;;;;;;5133235;27;2193;-44
2023/03/28 16:41:39;;;;;;;;;;;;;;;;;;5133271;27;1986;-41
2023/03/28 16:44:06;;;;;;;;;;;;;;;;;;5133040;27;1932;-42
2023/03/28 16:46:33;;;;;;;;;;;;;;;;;;5132874;27;2041;-41
2023/03/28 16:49:01;;;;;;;;;;;;;;;;;;5133011;27;1882;-41
2023/03/28 16:51:28;;;;;;;;;;;;;;;;;;5132955;27;2120;-41
2023/03/28 16:53:55;;;;;;;;;;;;;;;;;;5114447;27;1898;-41
2023/03/28 16:56:25;;;;;;;;;;;;;;;;;;5110893;28;2072;-40
2023/03/28 16:58:53;;;;;;;;;;;;;;;;;;5112204;28;2016;-40
2023/03/28 17:01:21;;;;;;;;;;;;;;;;;;5112125;28;1962;-45
2023/03/28 17:03:48;;;;;;;;;;;;;;;;;;5111404;28;2010;-42
2023/03/28 17:06:15;;;;;;;;;;;;;;;;;;5112146;28;1873;-41
2023/03/28 17:08:43;;;;;;;;;;;;;;;;;;5128779;27;2029;-43
2023/03/28 17:11:11;;;;;;;;;;;;;;;;;;5132617;27;1911;-41
2023/03/28 17:13:41;;;;;;;;;;;;;;;;;;5132527;27;1985;-45
2023/03/28 17:16:09;;;;;;;;;;;;;;;;;;5132198;27;1974;-40
2023/03/28 17:18:36;;;;;;;;;;;;;;;;;;5132411;27;1923;-40
2023/03/28 17:21:05;;;;;;;;;;;;;;;;;;5132115;27;1976;-40
2023/03/28 17:23:33;;;;;;;;;;;;;;;;;;5132431;27;1905;-41
2023/03/28 17:26:01;;;;;;;;;;;;;;;;;;5132031;27;1640;-41
2023/03/28 17:28:28;;;;;;;;;;;;;;;;;;5132555;27;1972;-41
2023/03/28 17:30:56;;;;;;;;;;;;;;;;;;5132304;27;1833;-42
2023/03/28 17:33:23;;;;;;;;;;;;;;;;;;5132061;27;1964;-53
2023/03/28 17:35:50;;;;;;;;;;;;;;;;;;5132219;27;1888;-44
2023/03/28 17:38:18;;;;;;;;;;;;;;;;;;5117721;27;1980;-40
2023/03/28 17:40:45;;;;;;;;;;;;;;;;;;5111678;28;1997;-41
2023/03/28 17:43:13;;;;;;;;;;;;;;;;;;5111763;28;2114;-41
2023/03/28 17:45:40;;;;;;;;;;;;;;;;;;5111300;28;1910;-40
2023/03/28 17:48:07;;;;;;;;;;;;;;;;;;5111428;28;1801;-41
2023/03/28 17:50:35;;;;;;;;;;;;;;;;;;5111615;28;1945;-40
2023/03/28 17:53:03;;;;;;;;;;;;;;;;;;5111363;28;2035;-45
2023/03/28 17:55:30;;;;;;;;;;;;;;;;;;5114374;28;2059;-58
2023/03/28 17:57:57;;;;;;;;;;;;;;;;;;5132182;27;1969;-61